Hovedside
METAR-TAF:

METAR-TAF

Lufthavner :

Wallis, Frankrike

breddegrad: 13-14S, lengdegrad: 176-10W, høyde over havet: 23 m

METAR: fraværende

Tid: 09:19 (21:19 UTC)

Varsel

Denne rapporten ble laget for 4 timer og 19 minutter siden, klokken 17:00 UTC
Varsel gyldig fra 13. klokken 18 UTC til 14. klokken 18 UTC
Vind 8 kt fra Øst
Sikt 10 km eller mer
Spredte skyer i en høyde av 2000 ft
Brutte skyer i en høyde av 3500 ft
Midlertidig
fra 13. klokken 18 UTC til 13. klokken 23 UTC
regnbyger
Sannsynlighet 40% :
Midlertidig
fra 13. klokken 18 UTC til 13. klokken 21 UTC
Sikt: 3500 m
Brutte skyer i en høyde av 1400 ft
Spredte skyer i en høyde av 2000 ft, Tårnskyer (cumulus).
regnbyger

TAF: NLWW 131700Z 1318/1418 09008KT 9999 SCT020 BKN035 TEMPO 1318/1323 SHRA PROB40 TEMPO 1318/1321 3500 SHRA BKN014 SCT020TCU

Værobservasjoner og værvarsel for over 4000 flyplasser (METAR- og TAF-rapporter).

Tilgjengelige stasjoner er representert av de røde og gule prikkene på kartet.

Hold musepekeren over prikken for å se navnet på stasjonen.

Klikk så for å se værobservasjoner og -varsler.

For å forandre kartet kan du klikke på den grønne knappen med svart kryss for å zoome inn, på den grønne knappen med strek for å zoome ut, eller på de grønne pilene for å se tilstøtende kart.


METAR-TAF: